Celtic Voyager — EIQN — position and weather

sailwx.info

Track history (hours):
 
Tides and Currents Weather Stations Pressure Air Temp Water Temp Dewpoint Dewpoint Depression Visibility Wind Speed Wind Dir Waves Ship Positions

Oceanographic research ship Celtic Voyager (Ireland)

Detailed information on ship capabilities available from University of Delaware's Ocean Information Center.

Last reported at 2019-Aug-24 06:45 UTC. Time now 2019-Aug-24 08:49 UTC.
Position N 49°59' W 007°44'.

Length 31 m; beam 8 m.

Type: Ship. MMSI: 250089000.

Date/timePositionNaut miles runAvg speedWind from/ knotsBaromVisibWave heightAir tempDewpointWater temp
2019-Aug-24 06:45N 49°59' W 007°44'2 8.8
2019-Aug-24 06:30N 49°57' W 007°42'9 3.2
2019-Aug-24 03:50N 49°54' W 007°55'3 3.5
2019-Aug-24 03:05N 49°55' W 007°59'0 3.0
2019-Aug-24 03:00N 49°55' W 007°59'5 8.4
2019-Aug-24 02:26N 49°53' W 008°06'4 1.6
2019-Aug-24 00:09N 49°49' W 008°06'1 8.6
2019-Aug-24 00:00N 49°49' W 008°04'1 1.7
2019-Aug-23 23:30N 49°49' W 008°03'4 7.7
2019-Aug-23 22:58N 49°46' W 008°06'2 4.2
2019-Aug-23 22:30N 49°44' W 008°08'3 5.6
2019-Aug-23 22:00N 49°44' W 008°04'3 6.2
2019-Aug-23 21:30N 49°44' W 007°59'21 4.4
2019-Aug-23 16:36N 49°49' W 007°27'5 6.6
2019-Aug-23 15:47N 49°54' W 007°30'1 2.5
2019-Aug-23 15:14N 49°54' W 007°28'9 3.9
2019-Aug-23 12:57N 49°59' W 007°17'93 3.5
2019-Aug-22 10:19N 51°27' W 008°08'3 8.7
2019-Aug-22 10:00N 51°30' W 008°09'4 8.5
2019-Aug-22 09:30N 51°34' W 008°10'4 8.3
2019-Aug-22 09:00N 51°38' W 008°12'4 8.3
2019-Aug-22 08:30N 51°42' W 008°14'4 8.2
2019-Aug-22 08:00N 51°46' W 008°15'4 8.2
2019-Aug-22 07:30N 51°50' W 008°16'3 5.4
2019-Aug-22 07:00N 51°51' W 008°20'4 7.2
2019-Aug-22 06:30N 51°54' W 008°24'3 5.0
2019-Aug-22 06:00N 51°54' W 008°28'0 0.1
2019-Aug-22 05:29N 51°54' W 008°28'0 0.0
2019-Aug-22 04:59N 51°54' W 008°28'0 0.0
2019-Aug-22 04:29N 51°54' W 008°28'0 0.0
2019-Aug-22 03:59N 51°54' W 008°28'0 0.0
2019-Aug-22 03:29N 51°54' W 008°28'0 0.0
2019-Aug-22 02:59N 51°54' W 008°28'0 0.0
2019-Aug-22 02:29N 51°54' W 008°28'0 0.0
2019-Aug-22 01:59N 51°54' W 008°28'0 0.0
2019-Aug-22 01:29N 51°54' W 008°28'0 0.0
2019-Aug-22 00:59N 51°54' W 008°28'0 0.0
2019-Aug-22 00:29N 51°54' W 008°28'0 0.0
2019-Aug-21 23:59N 51°54' W 008°28'0 0.0
2019-Aug-21 23:29N 51°54' W 008°28'0 0.0
2019-Aug-21 22:59N 51°54' W 008°28'0 0.0
2019-Aug-21 22:23N 51°54' W 008°28'0 0.0
2019-Aug-21 21:59N 51°54' W 008°28'0 0.0
2019-Aug-21 21:23N 51°54' W 008°28'0 0.0
2019-Aug-21 20:59N 51°54' W 008°28'0 0.0
2019-Aug-21 20:23N 51°54' W 008°28'0 0.0
2019-Aug-21 19:59N 51°54' W 008°28'0 0.0
2019-Aug-21 18:59N 51°54' W 008°28'0 0.0
2019-Aug-21 18:23N 51°54' W 008°28'0 0.0
2019-Aug-21 17:59N 51°54' W 008°28'0 0.0
2019-Aug-21 17:29N 51°54' W 008°28'0 0.0
2019-Aug-21 16:59N 51°54' W 008°28'0 0.0
2019-Aug-21 16:29N 51°54' W 008°28'0 0.0
2019-Aug-21 15:59N 51°54' W 008°28'0 0.0
2019-Aug-21 15:26N 51°54' W 008°28'0 0.0
2019-Aug-21 14:52N 51°54' W 008°28'0 0.0
2019-Aug-21 14:16N 51°54' W 008°28'0 0.0
2019-Aug-21 13:52N 51°54' W 008°28'0 0.0
2019-Aug-21 13:28N 51°54' W 008°28'0 0.0
2019-Aug-21 12:58N 51°54' W 008°28'0 0.0
2019-Aug-21 12:28N 51°54' W 008°28'0 0.0
2019-Aug-21 11:58N 51°54' W 008°28'0 0.0
2019-Aug-21 11:28N 51°54' W 008°28'0 0.0
2019-Aug-21 10:58N 51°54' W 008°28'0 0.0
2019-Aug-21 10:28N 51°54' W 008°28'0 0.0
2019-Aug-21 09:58N 51°54' W 008°28'0 0.0
2019-Aug-21 09:28N 51°54' W 008°28'0 0.0
2019-Aug-21 08:46N 51°54' W 008°28'0 0.0
2019-Aug-21 07:28N 51°54' W 008°28'0 0.0
2019-Aug-21 06:34N 51°54' W 008°28'0 0.0
2019-Aug-21 06:25N 51°54' W 008°28'0 0.0
2019-Aug-21 05:58N 51°54' W 008°28'0 0.0
2019-Aug-21 05:28N 51°54' W 008°28'0 0.0
2019-Aug-21 04:58N 51°54' W 008°28'0 0.0
2019-Aug-21 04:28N 51°54' W 008°28'0 0.0
2019-Aug-21 03:58N 51°54' W 008°28'0 0.0
2019-Aug-21 03:25N 51°54' W 008°28'0 0.0
2019-Aug-21 02:55N 51°54' W 008°28'0 0.0
2019-Aug-21 02:28N 51°54' W 008°28'0 0.0
2019-Aug-21 01:58N 51°54' W 008°28'0 0.0
2019-Aug-21 01:28N 51°54' W 008°28'0 0.0
2019-Aug-21 00:58N 51°54' W 008°28'1 1.5
2019-Aug-21 00:30N 51°54' W 008°27'4 7.1
2019-Aug-21 00:00N 51°53' W 008°21'3 5.8
2019-Aug-20 23:30N 51°51' W 008°18'3 5.2
2019-Aug-20 23:00N 51°49' W 008°16'3 6.6
2019-Aug-20 22:30N 51°45' W 008°15'5 9.1
2019-Aug-20 22:00N 51°41' W 008°12'2 3.5
2019-Aug-20 21:30N 51°40' W 008°10'1 1.5
2019-Aug-20 21:00N 51°40' W 008°09'1 2.6
2019-Aug-20 20:30N 51°42' W 008°10'1 1.7
2019-Aug-20 20:00N 51°42' W 008°09'1 1.8
2019-Aug-20 19:30N 51°43' W 008°07'1 2.1
2019-Aug-20 19:00N 51°44' W 008°08'2 4.1
2019-Aug-20 18:30N 51°44' W 008°11'3 6.5
2019-Aug-20 18:00N 51°46' W 008°15'4 7.7
2019-Aug-20 17:30N 51°50' W 008°16'3 5.2
2019-Aug-20 17:00N 51°51' W 008°20'4 7.1
2019-Aug-20 16:30N 51°54' W 008°23'3 5.0
2019-Aug-20 16:00N 51°54' W 008°28'0 0.0
2019-Aug-20 15:28N 51°54' W 008°28'0 0.0
2019-Aug-20 14:58N 51°54' W 008°28'0 0.0
2019-Aug-20 14:25N 51°54' W 008°28'0 0.0
2019-Aug-20 13:55N 51°54' W 008°28'0 0.0
2019-Aug-20 13:25N 51°54' W 008°28'0 0.0
2019-Aug-20 12:49N 51°54' W 008°28'0 0.0
2019-Aug-20 12:25N 51°54' W 008°28'0 0.0
2019-Aug-20 11:49N 51°54' W 008°28'0 0.0
2019-Aug-20 11:01N 51°54' W 008°28'0 0.0
2019-Aug-20 10:55N 51°54' W 008°28'0 0.0
2019-Aug-20 09:43N 51°54' W 008°28'0 0.0
2019-Aug-20 09:25N 51°54' W 008°28'0 0.0
2019-Aug-20 08:58N 51°54' W 008°28'0 0.0
2019-Aug-20 08:22N 51°54' W 008°28'0 0.0
2019-Aug-20 07:55N 51°54' W 008°28'0 0.0
2019-Aug-20 07:28N 51°54' W 008°28'0 0.0
2019-Aug-20 06:55N 51°54' W 008°28'0 0.0
2019-Aug-20 06:28N 51°54' W 008°28'0 0.0
2019-Aug-20 05:58N 51°54' W 008°28'0 0.0
2019-Aug-20 05:31N 51°54' W 008°28'0 0.0
2019-Aug-20 04:18N 51°54' W 008°28'0 0.0
2019-Aug-20 04:00N 51°54' W 008°28'0 0.0
2019-Aug-20 03:30N 51°54' W 008°28'0 0.0
2019-Aug-20 03:00N 51°54' W 008°28'0 0.0
2019-Aug-20 02:30N 51°54' W 008°28'0 0.0
2019-Aug-20 02:00N 51°54' W 008°28'0 0.0
2019-Aug-20 01:30N 51°54' W 008°28'0 0.0
2019-Aug-20 01:00N 51°54' W 008°28'0 0.0
2019-Aug-20 00:30N 51°54' W 008°28'0 0.0
2019-Aug-20 00:00N 51°54' W 008°28'0 0.0
2019-Aug-19 23:30N 51°54' W 008°28'0 0.0
2019-Aug-19 23:00N 51°54' W 008°28'0 0.0
2019-Aug-19 22:30N 51°54' W 008°28'0 0.0
2019-Aug-19 22:00N 51°54' W 008°28'0 0.0
2019-Aug-19 21:30N 51°54' W 008°28'0 0.0
2019-Aug-19 21:00N 51°54' W 008°28'0 0.0
2019-Aug-19 20:30N 51°54' W 008°28'0 0.0
2019-Aug-19 20:00N 51°54' W 008°28'0 0.0
2019-Aug-19 19:30N 51°54' W 008°28'0 0.0
2019-Aug-19 19:00N 51°54' W 008°28'0 0.0
2019-Aug-19 18:30N 51°54' W 008°28'0 0.0
2019-Aug-19 17:42N 51°54' W 008°28'0 0.0
2019-Aug-19 17:30N 51°54' W 008°28'0 0.0
2019-Aug-19 16:24N 51°54' W 008°28'0 0.0
2019-Aug-19 16:00N 51°54' W 008°28'0 0.0
2019-Aug-19 15:27N 51°54' W 008°28'0 0.0
2019-Aug-19 15:00N 51°54' W 008°28'0 0.0
2019-Aug-19 14:30N 51°54' W 008°28'0 0.0
2019-Aug-19 13:57N 51°54' W 008°28'0 0.0
2019-Aug-19 13:30N 51°54' W 008°28'0 0.0
2019-Aug-19 13:00N 51°54' W 008°28'0 0.0
2019-Aug-19 10:06N 51°54' W 008°28'0 0.0
2019-Aug-19 08:42N 51°54' W 008°28'0 0.0
2019-Aug-19 08:24N 51°54' W 008°28'0 0.0
2019-Aug-19 08:00N 51°54' W 008°28'0 0.0
2019-Aug-19 07:30N 51°54' W 008°28'0 0.0
2019-Aug-19 07:00N 51°54' W 008°28'0 0.0
2019-Aug-19 06:30N 51°54' W 008°28'0 0.0
2019-Aug-19 05:39N 51°54' W 008°28'0 0.0
2019-Aug-18 21:06N 51°54' W 008°28'0 0.0
2019-Aug-18 20:57N 51°54' W 008°28'0 0.0
2019-Aug-18 20:30N 51°54' W 008°28'0 0.0
2019-Aug-18 20:00N 51°54' W 008°28'0 0.0
2019-Aug-18 19:27N 51°54' W 008°28'0 0.0
2019-Aug-18 18:57N 51°54' W 008°28'0 0.0
2019-Aug-18 18:30N 51°54' W 008°28'0 0.0
2019-Aug-18 18:00N 51°54' W 008°28'0 0.0
2019-Aug-18 17:29N 51°54' W 008°28'0 0.0
2019-Aug-18 16:47N 51°54' W 008°28'0 0.0
2019-Aug-18 16:26N 51°54' W 008°28'0 0.0
2019-Aug-18 14:23N 51°54' W 008°28'0 0.0
2019-Aug-18 13:41N 51°54' W 008°28'0 0.0
2019-Aug-18 12:59N 51°54' W 008°28'0 0.0
2019-Aug-18 11:59N 51°54' W 008°28'0 0.0
2019-Aug-18 09:56N 51°54' W 008°28'0 0.0
2019-Aug-18 09:17N 51°54' W 008°28'0 0.0
2019-Aug-18 08:59N 51°54' W 008°28'0 0.0
2019-Aug-18 08:11N 51°54' W 008°28'0 0.0
2019-Aug-18 07:59N 51°54' W 008°28'0 0.0
2019-Aug-18 06:59N 51°54' W 008°28'0 0.0
2019-Aug-18 06:29N 51°54' W 008°28'0 0.0
2019-Aug-18 05:59N 51°54' W 008°28'0 0.0
2019-Aug-18 05:29N 51°54' W 008°28'0 0.0
2019-Aug-18 04:59N 51°54' W 008°28'0 0.0
2019-Aug-18 04:29N 51°54' W 008°28'0 0.0
2019-Aug-18 03:53N 51°54' W 008°28'0 0.0
2019-Aug-18 01:14N 51°54' W 008°28'0 0.0
2019-Aug-18 00:59N 51°54' W 008°28'0 0.0
2019-Aug-17 22:05N 51°54' W 008°28'0 0.0
2019-Aug-17 21:53N 51°54' W 008°28'0 0.0
2019-Aug-17 21:26N 51°54' W 008°28'0 0.0
2019-Aug-17 20:59N 51°54' W 008°28'0 0.0
2019-Aug-17 20:26N 51°54' W 008°28'0 0.0
2019-Aug-17 19:59N 51°54' W 008°28'0 0.0
2019-Aug-17 19:29N 51°54' W 008°28'0 0.0
2019-Aug-17 18:59N 51°54' W 008°28'0 0.0
2019-Aug-17 18:29N 51°54' W 008°28'0 0.0
2019-Aug-17 17:26N 51°54' W 008°28'0 0.0
2019-Aug-17 16:59N 51°54' W 008°28'0 0.0
2019-Aug-17 16:29N 51°54' W 008°28'0 0.0
2019-Aug-17 15:59N 51°54' W 008°28'0 0.0
2019-Aug-17 14:59N 51°54' W 008°28'0 0.0
2019-Aug-17 13:53N 51°54' W 008°28'0 0.0
2019-Aug-17 13:14N 51°54' W 008°28'0 0.0
2019-Aug-17 11:53N 51°54' W 008°28'0 0.0
2019-Aug-17 11:17N 51°54' W 008°28'0 0.0
2019-Aug-17 10:59N 51°54' W 008°28'0 0.0
2019-Aug-17 10:23N 51°54' W 008°28'0 0.0
2019-Aug-17 08:53N 51°54' W 008°28'0 0.0
2019-Aug-17 08:29N 51°54' W 008°28'0 0.0
2019-Aug-17 07:56N 51°54' W 008°28'0 0.0
2019-Aug-17 07:29N 51°54' W 008°28'0 0.0
2019-Aug-17 06:56N 51°54' W 008°28'0 0.0
2019-Aug-17 06:28N 51°54' W 008°28'0 0.0
2019-Aug-17 05:58N 51°54' W 008°28'0 0.0
2019-Aug-17 05:28N 51°54' W 008°28'0 0.0
2019-Aug-17 04:58N 51°54' W 008°28'0 0.0
2019-Aug-17 01:58N 51°54' W 008°28'0 0.0
2019-Aug-17 01:16N 51°54' W 008°28'0 0.0
2019-Aug-17 00:52N 51°54' W 008°28'0 0.0
2019-Aug-17 00:28N 51°54' W 008°28'0 0.0
2019-Aug-16 23:52N 51°54' W 008°28'0 0.0
2019-Aug-16 20:34N 51°54' W 008°28'0 0.0
2019-Aug-16 20:10N 51°54' W 008°28'0 0.0
2019-Aug-16 19:52N 51°54' W 008°28'0 0.0
2019-Aug-16 19:10N 51°54' W 008°28'0 0.0
2019-Aug-16 18:55N 51°54' W 008°28'0 0.0
2019-Aug-16 18:28N 51°54' W 008°28'0 0.0
2019-Aug-16 17:58N 51°54' W 008°28'0 0.0
2019-Aug-16 17:16N 51°54' W 008°28'0 0.0
2019-Aug-16 16:34N 51°54' W 008°28'0 0.0
2019-Aug-16 16:22N 51°54' W 008°28'0 0.0
2019-Aug-16 15:58N 51°54' W 008°28'0 0.0
2019-Aug-16 15:25N 51°54' W 008°28'0 0.0
2019-Aug-16 13:40N 51°54' W 008°28'0 0.0
2019-Aug-16 12:16N 51°54' W 008°28'0 0.0
2019-Aug-16 11:58N 51°54' W 008°28'0 0.0
2019-Aug-16 11:28N 51°54' W 008°28'0 0.0
2019-Aug-16 10:58N 51°54' W 008°28'0 0.0
2019-Aug-16 10:28N 51°54' W 008°28'0 0.0
2019-Aug-16 09:07N 51°54' W 008°28'0 0.0
2019-Aug-16 03:46N 51°54' W 008°28'0 0.0
2019-Aug-16 02:34N 51°54' W 008°28'0 0.0
2019-Aug-16 01:58N 51°54' W 008°28'0 0.0
2019-Aug-16 01:28N 51°54' W 008°28'0 0.0
2019-Aug-16 00:58N 51°54' W 008°28'0 0.0
2019-Aug-16 00:04N 51°54' W 008°28'0 0.0
2019-Aug-15 23:52N 51°54' W 008°28'0 0.0
2019-Aug-15 23:28N 51°54' W 008°28'0 0.0
2019-Aug-15 22:58N 51°54' W 008°28'0 0.0
2019-Aug-15 22:16N 51°54' W 008°28'0 0.0
2019-Aug-15 21:01N 51°54' W 008°28'0 0.0
2019-Aug-15 21:00N 51°54' W 008°28'3 5.8
2019-Aug-15 20:31N 51°54' W 008°23'4 7.1
2019-Aug-15 20:01N 51°51' W 008°20'3 5.0
2019-Aug-15 19:30N 51°50' W 008°16'4 7.7
2019-Aug-15 19:00N 51°46' W 008°15'4 8.5
2019-Aug-15 18:30N 51°45' W 008°08'2 3.5
2019-Aug-15 18:00N 51°45' W 008°06'3 5.7
2019-Aug-15 17:30N 51°42' W 008°05'2 4.0
2019-Aug-15 17:01N 51°40' W 008°05'4 7.3
2019-Aug-15 16:30N 51°36' W 008°05'3 5.7
2019-Aug-15 16:00N 51°34' W 008°05'3 5.5
2019-Aug-15 15:30N 51°31' W 008°05'2 4.9
2019-Aug-15 15:00N 51°28' W 008°05'3 6.0
2019-Aug-15 14:28N 51°25' W 008°05'2 3.5
2019-Aug-15 14:00N 51°24' W 008°05'23 4.4
2019-Aug-15 08:44N 51°30' W 008°40'0 0.1
2019-Aug-15 08:29N 51°30' W 008°40'2 3.9
2019-Aug-15 08:00N 51°32' W 008°40'1 1.9
2019-Aug-15 07:25N 51°33' W 008°40'0 0.2
2019-Aug-15 07:00N 51°33' W 008°40'2 3.7
2019-Aug-15 06:30N 51°34' W 008°37'2 3.6
2019-Aug-15 06:00N 51°34' W 008°34'2 4.6
2019-Aug-15 05:31N 51°35' W 008°31'3 5.1
2019-Aug-15 05:00N 51°37' W 008°28'1 2.6
2019-Aug-15 04:31N 51°37' W 008°26'0 1.0
2019-Aug-15 04:00N 51°38' W 008°25'1 2.8
2019-Aug-15 03:30N 51°39' W 008°24'1 1.7
2019-Aug-15 03:00N 51°39' W 008°23'1 2.3
2019-Aug-15 02:30N 51°40' W 008°22'1 2.2
2019-Aug-15 02:00N 51°41' W 008°20'1 2.3
2019-Aug-15 01:31N 51°42' W 008°19'1 2.5
2019-Aug-15 01:01N 51°43' W 008°18'2 3.3
2019-Aug-15 00:30N 51°44' W 008°16'1 2.2
2019-Aug-15 00:01N 51°45' W 008°16'3 5.7
2019-Aug-14 23:30N 51°48' W 008°16'3 6.4
2019-Aug-14 23:00N 51°51' W 008°18'4 7.0
2019-Aug-14 22:30N 51°53' W 008°22'2 0.2
2019-Aug-14 13:56N 51°54' W 008°25'4 8.7
2019-Aug-14 13:30N 51°52' W 008°20'3 6.4
2019-Aug-14 13:00N 51°50' W 008°16'5 9.6
2019-Aug-14 12:30N 51°46' W 008°15'5 9.2
2019-Aug-14 12:00N 51°41' W 008°18'5 9.4
2019-Aug-14 11:30N 51°37' W 008°23'5 9.0
2019-Aug-14 11:00N 51°34' W 008°27'  
Track history (hours):
 
Tides and Currents Weather Stations Pressure Air Temp Water Temp Dewpoint Dewpoint Depression Visibility Wind Speed Wind Dir Waves Ship Positions

Oceanographic research ship Celtic Voyager (Ireland)

Detailed information on ship capabilities available from University of Delaware's Ocean Information Center.

Last reported at 2019-Aug-24 06:45 UTC. Time now 2019-Aug-24 08:49 UTC.
Position N 49°59' W 007°44'.

Length 31 m; beam 8 m.

Type: Ship. MMSI: 250089000.

Date/timePositionNaut miles runAvg speedWind from/ knotsBaromVisibWave heightAir tempDewpointWater temp
2019-Aug-24 06:45N 49°59' W 007°44'2 8.8
2019-Aug-24 06:30N 49°57' W 007°42'9 3.2
2019-Aug-24 03:50N 49°54' W 007°55'3 3.5
2019-Aug-24 03:05N 49°55' W 007°59'0 3.0
2019-Aug-24 03:00N 49°55' W 007°59'5 8.4
2019-Aug-24 02:26N 49°53' W 008°06'4 1.6
2019-Aug-24 00:09N 49°49' W 008°06'1 8.6
2019-Aug-24 00:00N 49°49' W 008°04'1 1.7
2019-Aug-23 23:30N 49°49' W 008°03'4 7.7
2019-Aug-23 22:58N 49°46' W 008°06'2 4.2
2019-Aug-23 22:30N 49°44' W 008°08'3 5.6
2019-Aug-23 22:00N 49°44' W 008°04'3 6.2
2019-Aug-23 21:30N 49°44' W 007°59'21 4.4
2019-Aug-23 16:36N 49°49' W 007°27'5 6.6
2019-Aug-23 15:47N 49°54' W 007°30'1 2.5
2019-Aug-23 15:14N 49°54' W 007°28'9 3.9
2019-Aug-23 12:57N 49°59' W 007°17'93 3.5
2019-Aug-22 10:19N 51°27' W 008°08'3 8.7
2019-Aug-22 10:00N 51°30' W 008°09'4 8.5
2019-Aug-22 09:30N 51°34' W 008°10'4 8.3
2019-Aug-22 09:00N 51°38' W 008°12'4 8.3
2019-Aug-22 08:30N 51°42' W 008°14'4 8.2
2019-Aug-22 08:00N 51°46' W 008°15'4 8.2
2019-Aug-22 07:30N 51°50' W 008°16'3 5.4
2019-Aug-22 07:00N 51°51' W 008°20'4 7.2
2019-Aug-22 06:30N 51°54' W 008°24'3 5.0
2019-Aug-22 06:00N 51°54' W 008°28'0 0.1
2019-Aug-22 05:29N 51°54' W 008°28'0 0.0
2019-Aug-22 04:59N 51°54' W 008°28'0 0.0
2019-Aug-22 04:29N 51°54' W 008°28'0 0.0
2019-Aug-22 03:59N 51°54' W 008°28'0 0.0
2019-Aug-22 03:29N 51°54' W 008°28'0 0.0
2019-Aug-22 02:59N 51°54' W 008°28'0 0.0
2019-Aug-22 02:29N 51°54' W 008°28'0 0.0
2019-Aug-22 01:59N 51°54' W 008°28'0 0.0
2019-Aug-22 01:29N 51°54' W 008°28'0 0.0
2019-Aug-22 00:59N 51°54' W 008°28'0 0.0
2019-Aug-22 00:29N 51°54' W 008°28'0 0.0
2019-Aug-21 23:59N 51°54' W 008°28'0 0.0
2019-Aug-21 23:29N 51°54' W 008°28'0 0.0
2019-Aug-21 22:59N 51°54' W 008°28'0 0.0
2019-Aug-21 22:23N 51°54' W 008°28'0 0.0
2019-Aug-21 21:59N 51°54' W 008°28'0 0.0
2019-Aug-21 21:23N 51°54' W 008°28'0 0.0
2019-Aug-21 20:59N 51°54' W 008°28'0 0.0
2019-Aug-21 20:23N 51°54' W 008°28'0 0.0
2019-Aug-21 19:59N 51°54' W 008°28'0 0.0
2019-Aug-21 18:59N 51°54' W 008°28'0 0.0
2019-Aug-21 18:23N 51°54' W 008°28'0 0.0
2019-Aug-21 17:59N 51°54' W 008°28'0 0.0
2019-Aug-21 17:29N 51°54' W 008°28'0 0.0
2019-Aug-21 16:59N 51°54' W 008°28'0 0.0
2019-Aug-21 16:29N 51°54' W 008°28'0 0.0
2019-Aug-21 15:59N 51°54' W 008°28'0 0.0
2019-Aug-21 15:26N 51°54' W 008°28'0 0.0
2019-Aug-21 14:52N 51°54' W 008°28'0 0.0
2019-Aug-21 14:16N 51°54' W 008°28'0 0.0
2019-Aug-21 13:52N 51°54' W 008°28'0 0.0
2019-Aug-21 13:28N 51°54' W 008°28'0 0.0
2019-Aug-21 12:58N 51°54' W 008°28'0 0.0
2019-Aug-21 12:28N 51°54' W 008°28'0 0.0
2019-Aug-21 11:58N 51°54' W 008°28'0 0.0
2019-Aug-21 11:28N 51°54' W 008°28'0 0.0
2019-Aug-21 10:58N 51°54' W 008°28'0 0.0
2019-Aug-21 10:28N 51°54' W 008°28'0 0.0
2019-Aug-21 09:58N 51°54' W 008°28'0 0.0
2019-Aug-21 09:28N 51°54' W 008°28'0 0.0
2019-Aug-21 08:46N 51°54' W 008°28'0 0.0
2019-Aug-21 07:28N 51°54' W 008°28'0 0.0
2019-Aug-21 06:34N 51°54' W 008°28'0 0.0
2019-Aug-21 06:25N 51°54' W 008°28'0 0.0
2019-Aug-21 05:58N 51°54' W 008°28'0 0.0
2019-Aug-21 05:28N 51°54' W 008°28'0 0.0
2019-Aug-21 04:58N 51°54' W 008°28'0 0.0
2019-Aug-21 04:28N 51°54' W 008°28'0 0.0
2019-Aug-21 03:58N 51°54' W 008°28'0 0.0
2019-Aug-21 03:25N 51°54' W 008°28'0 0.0
2019-Aug-21 02:55N 51°54' W 008°28'0 0.0
2019-Aug-21 02:28N 51°54' W 008°28'0 0.0
2019-Aug-21 01:58N 51°54' W 008°28'0 0.0
2019-Aug-21 01:28N 51°54' W 008°28'0 0.0
2019-Aug-21 00:58N 51°54' W 008°28'1 1.5
2019-Aug-21 00:30N 51°54' W 008°27'4 7.1
2019-Aug-21 00:00N 51°53' W 008°21'3 5.8
2019-Aug-20 23:30N 51°51' W 008°18'3 5.2
2019-Aug-20 23:00N 51°49' W 008°16'3 6.6
2019-Aug-20 22:30N 51°45' W 008°15'5 9.1
2019-Aug-20 22:00N 51°41' W 008°12'2 3.5
2019-Aug-20 21:30N 51°40' W 008°10'1 1.5
2019-Aug-20 21:00N 51°40' W 008°09'1 2.6
2019-Aug-20 20:30N 51°42' W 008°10'1 1.7
2019-Aug-20 20:00N 51°42' W 008°09'1 1.8
2019-Aug-20 19:30N 51°43' W 008°07'1 2.1
2019-Aug-20 19:00N 51°44' W 008°08'2 4.1
2019-Aug-20 18:30N 51°44' W 008°11'3 6.5
2019-Aug-20 18:00N 51°46' W 008°15'4 7.7
2019-Aug-20 17:30N 51°50' W 008°16'3 5.2
2019-Aug-20 17:00N 51°51' W 008°20'4 7.1
2019-Aug-20 16:30N 51°54' W 008°23'3 5.0
2019-Aug-20 16:00N 51°54' W 008°28'0 0.0
2019-Aug-20 15:28N 51°54' W 008°28'0 0.0
2019-Aug-20 14:58N 51°54' W 008°28'0 0.0
2019-Aug-20 14:25N 51°54' W 008°28'0 0.0
2019-Aug-20 13:55N 51°54' W 008°28'0 0.0
2019-Aug-20 13:25N 51°54' W 008°28'0 0.0
2019-Aug-20 12:49N 51°54' W 008°28'0 0.0
2019-Aug-20 12:25N 51°54' W 008°28'0 0.0
2019-Aug-20 11:49N 51°54' W 008°28'0 0.0
2019-Aug-20 11:01N 51°54' W 008°28'0 0.0
2019-Aug-20 10:55N 51°54' W 008°28'0 0.0
2019-Aug-20 09:43N 51°54' W 008°28'0 0.0
2019-Aug-20 09:25N 51°54' W 008°28'0 0.0
2019-Aug-20 08:58N 51°54' W 008°28'0 0.0
2019-Aug-20 08:22N 51°54' W 008°28'0 0.0
2019-Aug-20 07:55N 51°54' W 008°28'0 0.0
2019-Aug-20 07:28N 51°54' W 008°28'0 0.0
2019-Aug-20 06:55N 51°54' W 008°28'0 0.0
2019-Aug-20 06:28N 51°54' W 008°28'0 0.0
2019-Aug-20 05:58N 51°54' W 008°28'0 0.0
2019-Aug-20 05:31N 51°54' W 008°28'0 0.0
2019-Aug-20 04:18N 51°54' W 008°28'0 0.0
2019-Aug-20 04:00N 51°54' W 008°28'0 0.0
2019-Aug-20 03:30N 51°54' W 008°28'0 0.0
2019-Aug-20 03:00N 51°54' W 008°28'0 0.0
2019-Aug-20 02:30N 51°54' W 008°28'0 0.0
2019-Aug-20 02:00N 51°54' W 008°28'0 0.0
2019-Aug-20 01:30N 51°54' W 008°28'0 0.0
2019-Aug-20 01:00N 51°54' W 008°28'0 0.0
2019-Aug-20 00:30N 51°54' W 008°28'0 0.0
2019-Aug-20 00:00N 51°54' W 008°28'0 0.0
2019-Aug-19 23:30N 51°54' W 008°28'0 0.0
2019-Aug-19 23:00N 51°54' W 008°28'0 0.0
2019-Aug-19 22:30N 51°54' W 008°28'0 0.0
2019-Aug-19 22:00N 51°54' W 008°28'0 0.0
2019-Aug-19 21:30N 51°54' W 008°28'0 0.0
2019-Aug-19 21:00N 51°54' W 008°28'0 0.0
2019-Aug-19 20:30N 51°54' W 008°28'0 0.0
2019-Aug-19 20:00N 51°54' W 008°28'0 0.0
2019-Aug-19 19:30N 51°54' W 008°28'0 0.0
2019-Aug-19 19:00N 51°54' W 008°28'0 0.0
2019-Aug-19 18:30N 51°54' W 008°28'0 0.0
2019-Aug-19 17:42N 51°54' W 008°28'0 0.0
2019-Aug-19 17:30N 51°54' W 008°28'0 0.0
2019-Aug-19 16:24N 51°54' W 008°28'0 0.0
2019-Aug-19 16:00N 51°54' W 008°28'0 0.0
2019-Aug-19 15:27N 51°54' W 008°28'0 0.0
2019-Aug-19 15:00N 51°54' W 008°28'0 0.0
2019-Aug-19 14:30N 51°54' W 008°28'0 0.0
2019-Aug-19 13:57N 51°54' W 008°28'0 0.0
2019-Aug-19 13:30N 51°54' W 008°28'0 0.0
2019-Aug-19 13:00N 51°54' W 008°28'0 0.0
2019-Aug-19 10:06N 51°54' W 008°28'0 0.0
2019-Aug-19 08:42N 51°54' W 008°28'0 0.0
2019-Aug-19 08:24N 51°54' W 008°28'0 0.0
2019-Aug-19 08:00N 51°54' W 008°28'0 0.0
2019-Aug-19 07:30N 51°54' W 008°28'0 0.0
2019-Aug-19 07:00N 51°54' W 008°28'0 0.0
2019-Aug-19 06:30N 51°54' W 008°28'0 0.0
2019-Aug-19 05:39N 51°54' W 008°28'0 0.0
2019-Aug-18 21:06N 51°54' W 008°28'0 0.0
2019-Aug-18 20:57N 51°54' W 008°28'0 0.0
2019-Aug-18 20:30N 51°54' W 008°28'0 0.0
2019-Aug-18 20:00N 51°54' W 008°28'0 0.0
2019-Aug-18 19:27N 51°54' W 008°28'0 0.0
2019-Aug-18 18:57N 51°54' W 008°28'0 0.0
2019-Aug-18 18:30N 51°54' W 008°28'0 0.0
2019-Aug-18 18:00N 51°54' W 008°28'0 0.0
2019-Aug-18 17:29N 51°54' W 008°28'0 0.0
2019-Aug-18 16:47N 51°54' W 008°28'0 0.0
2019-Aug-18 16:26N 51°54' W 008°28'0 0.0
2019-Aug-18 14:23N 51°54' W 008°28'0 0.0
2019-Aug-18 13:41N 51°54' W 008°28'0 0.0
2019-Aug-18 12:59N 51°54' W 008°28'0 0.0
2019-Aug-18 11:59N 51°54' W 008°28'0 0.0
2019-Aug-18 09:56N 51°54' W 008°28'0 0.0
2019-Aug-18 09:17N 51°54' W 008°28'0 0.0
2019-Aug-18 08:59N 51°54' W 008°28'0 0.0
2019-Aug-18 08:11N 51°54' W 008°28'0 0.0
2019-Aug-18 07:59N 51°54' W 008°28'0 0.0
2019-Aug-18 06:59N 51°54' W 008°28'0 0.0
2019-Aug-18 06:29N 51°54' W 008°28'0 0.0
2019-Aug-18 05:59N 51°54' W 008°28'0 0.0
2019-Aug-18 05:29N 51°54' W 008°28'0 0.0
2019-Aug-18 04:59N 51°54' W 008°28'0 0.0
2019-Aug-18 04:29N 51°54' W 008°28'0 0.0
2019-Aug-18 03:53N 51°54' W 008°28'0 0.0
2019-Aug-18 01:14N 51°54' W 008°28'0 0.0
2019-Aug-18 00:59N 51°54' W 008°28'0 0.0
2019-Aug-17 22:05N 51°54' W 008°28'0 0.0
2019-Aug-17 21:53N 51°54' W 008°28'0 0.0
2019-Aug-17 21:26N 51°54' W 008°28'0 0.0
2019-Aug-17 20:59N 51°54' W 008°28'0 0.0
2019-Aug-17 20:26N 51°54' W 008°28'0 0.0
2019-Aug-17 19:59N 51°54' W 008°28'0 0.0
2019-Aug-17 19:29N 51°54' W 008°28'0 0.0
2019-Aug-17 18:59N 51°54' W 008°28'0 0.0
2019-Aug-17 18:29N 51°54' W 008°28'0 0.0
2019-Aug-17 17:26N 51°54' W 008°28'0 0.0
2019-Aug-17 16:59N 51°54' W 008°28'0 0.0
2019-Aug-17 16:29N 51°54' W 008°28'0 0.0
2019-Aug-17 15:59N 51°54' W 008°28'0 0.0
2019-Aug-17 14:59N 51°54' W 008°28'0 0.0
2019-Aug-17 13:53N 51°54' W 008°28'0 0.0
2019-Aug-17 13:14N 51°54' W 008°28'0 0.0
2019-Aug-17 11:53N 51°54' W 008°28'0 0.0
2019-Aug-17 11:17N 51°54' W 008°28'0 0.0
2019-Aug-17 10:59N 51°54' W 008°28'0 0.0
2019-Aug-17 10:23N 51°54' W 008°28'0 0.0
2019-Aug-17 08:53N 51°54' W 008°28'0 0.0
2019-Aug-17 08:29N 51°54' W 008°28'0 0.0
2019-Aug-17 07:56N 51°54' W 008°28'0 0.0
2019-Aug-17 07:29N 51°54' W 008°28'0 0.0
2019-Aug-17 06:56N 51°54' W 008°28'0 0.0
2019-Aug-17 06:28N 51°54' W 008°28'0 0.0
2019-Aug-17 05:58N 51°54' W 008°28'0 0.0
2019-Aug-17 05:28N 51°54' W 008°28'0 0.0
2019-Aug-17 04:58N 51°54' W 008°28'0 0.0
2019-Aug-17 01:58N 51°54' W 008°28'0 0.0
2019-Aug-17 01:16N 51°54' W 008°28'0 0.0
2019-Aug-17 00:52N 51°54' W 008°28'0 0.0
2019-Aug-17 00:28N 51°54' W 008°28'0 0.0
2019-Aug-16 23:52N 51°54' W 008°28'0 0.0
2019-Aug-16 20:34N 51°54' W 008°28'0 0.0
2019-Aug-16 20:10N 51°54' W 008°28'0 0.0
2019-Aug-16 19:52N 51°54' W 008°28'0 0.0
2019-Aug-16 19:10N 51°54' W 008°28'0 0.0
2019-Aug-16 18:55N 51°54' W 008°28'0 0.0
2019-Aug-16 18:28N 51°54' W 008°28'0 0.0
2019-Aug-16 17:58N 51°54' W 008°28'0 0.0
2019-Aug-16 17:16N 51°54' W 008°28'0 0.0
2019-Aug-16 16:34N 51°54' W 008°28'0 0.0
2019-Aug-16 16:22N 51°54' W 008°28'0 0.0
2019-Aug-16 15:58N 51°54' W 008°28'0 0.0
2019-Aug-16 15:25N 51°54' W 008°28'0 0.0
2019-Aug-16 13:40N 51°54' W 008°28'0 0.0
2019-Aug-16 12:16N 51°54' W 008°28'0 0.0
2019-Aug-16 11:58N 51°54' W 008°28'0 0.0
2019-Aug-16 11:28N 51°54' W 008°28'0 0.0
2019-Aug-16 10:58N 51°54' W 008°28'0 0.0
2019-Aug-16 10:28N 51°54' W 008°28'0 0.0
2019-Aug-16 09:07N 51°54' W 008°28'0 0.0
2019-Aug-16 03:46N 51°54' W 008°28'0 0.0
2019-Aug-16 02:34N 51°54' W 008°28'0 0.0
2019-Aug-16 01:58N 51°54' W 008°28'0 0.0
2019-Aug-16 01:28N 51°54' W 008°28'0 0.0
2019-Aug-16 00:58N 51°54' W 008°28'0 0.0
2019-Aug-16 00:04N 51°54' W 008°28'0 0.0
2019-Aug-15 23:52N 51°54' W 008°28'0 0.0
2019-Aug-15 23:28N 51°54' W 008°28'0 0.0
2019-Aug-15 22:58N 51°54' W 008°28'0 0.0
2019-Aug-15 22:16N 51°54' W 008°28'0 0.0
2019-Aug-15 21:01N 51°54' W 008°28'0 0.0
2019-Aug-15 21:00N 51°54' W 008°28'3 5.8
2019-Aug-15 20:31N 51°54' W 008°23'4 7.1
2019-Aug-15 20:01N 51°51' W 008°20'3 5.0
2019-Aug-15 19:30N 51°50' W 008°16'4 7.7
2019-Aug-15 19:00N 51°46' W 008°15'4 8.5
2019-Aug-15 18:30N 51°45' W 008°08'2 3.5
2019-Aug-15 18:00N 51°45' W 008°06'3 5.7
2019-Aug-15 17:30N 51°42' W 008°05'2 4.0
2019-Aug-15 17:01N 51°40' W 008°05'4 7.3
2019-Aug-15 16:30N 51°36' W 008°05'3 5.7
2019-Aug-15 16:00N 51°34' W 008°05'3 5.5
2019-Aug-15 15:30N 51°31' W 008°05'2 4.9
2019-Aug-15 15:00N 51°28' W 008°05'3 6.0
2019-Aug-15 14:28N 51°25' W 008°05'2 3.5
2019-Aug-15 14:00N 51°24' W 008°05'23 4.4
2019-Aug-15 08:44N 51°30' W 008°40'0 0.1
2019-Aug-15 08:29N 51°30' W 008°40'2 3.9
2019-Aug-15 08:00N 51°32' W 008°40'1 1.9
2019-Aug-15 07:25N 51°33' W 008°40'0 0.2
2019-Aug-15 07:00N 51°33' W 008°40'2 3.7
2019-Aug-15 06:30N 51°34' W 008°37'2 3.6
2019-Aug-15 06:00N 51°34' W 008°34'2 4.6
2019-Aug-15 05:31N 51°35' W 008°31'3 5.1
2019-Aug-15 05:00N 51°37' W 008°28'1 2.6
2019-Aug-15 04:31N 51°37' W 008°26'0 1.0
2019-Aug-15 04:00N 51°38' W 008°25'1 2.8
2019-Aug-15 03:30N 51°39' W 008°24'1 1.7
2019-Aug-15 03:00N 51°39' W 008°23'1 2.3
2019-Aug-15 02:30N 51°40' W 008°22'1 2.2
2019-Aug-15 02:00N 51°41' W 008°20'1 2.3
2019-Aug-15 01:31N 51°42' W 008°19'1 2.5
2019-Aug-15 01:01N 51°43' W 008°18'2 3.3
2019-Aug-15 00:30N 51°44' W 008°16'1 2.2
2019-Aug-15 00:01N 51°45' W 008°16'3 5.7
2019-Aug-14 23:30N 51°48' W 008°16'3 6.4
2019-Aug-14 23:00N 51°51' W 008°18'4 7.0
2019-Aug-14 22:30N 51°53' W 008°22'2 0.2
2019-Aug-14 13:56N 51°54' W 008°25'4 8.7
2019-Aug-14 13:30N 51°52' W 008°20'3 6.4
2019-Aug-14 13:00N 51°50' W 008°16'5 9.6
2019-Aug-14 12:30N 51°46' W 008°15'5 9.2
2019-Aug-14 12:00N 51°41' W 008°18'5 9.4
2019-Aug-14 11:30N 51°37' W 008°23'5 9.0
2019-Aug-14 11:00N 51°34' W 008°27'  

Dump ship's entire track history